createdAt,value
2022-12-16T00:01:38.213Z,99484.00
2022-12-16T00:04:05.528Z,99472.00
2022-12-16T00:06:33.800Z,99481.00
2022-12-16T00:09:01.706Z,99470.00
2022-12-16T00:11:31.658Z,99481.00
2022-12-16T00:13:58.965Z,99477.00
2022-12-16T00:16:26.329Z,99475.00
2022-12-16T00:18:53.662Z,99490.00
2022-12-16T00:21:21.183Z,99491.00
2022-12-16T00:23:48.591Z,99479.00
2022-12-16T00:26:15.912Z,99482.00
2022-12-16T00:28:43.948Z,99497.00
2022-12-16T00:31:11.902Z,99489.00
2022-12-16T00:33:39.456Z,99492.00
2022-12-16T00:36:07.696Z,99492.00
2022-12-16T00:38:35.465Z,99502.00
2022-12-16T00:41:02.758Z,99499.00
2022-12-16T00:43:30.380Z,99499.00
2022-12-16T00:45:58.715Z,99499.00
2022-12-16T00:48:26.268Z,99506.00
2022-12-16T00:50:55.096Z,99503.00
2022-12-16T00:53:23.958Z,99501.00
2022-12-16T00:55:51.825Z,99496.00
2022-12-16T00:58:19.249Z,99482.00
2022-12-16T01:00:46.574Z,99495.00
2022-12-16T01:03:21.026Z,99496.00
2022-12-16T01:05:49.228Z,99490.00
2022-12-16T01:08:16.514Z,99496.00
2022-12-16T01:10:49.557Z,99495.00
2022-12-16T01:13:18.074Z,99507.00
2022-12-16T01:15:45.401Z,99503.00
2022-12-16T01:18:13.393Z,99507.00
2022-12-16T01:20:40.713Z,99503.00
2022-12-16T01:23:08.012Z,99499.00
2022-12-16T01:25:35.691Z,99507.00
2022-12-16T01:28:03.254Z,99516.00
2022-12-16T01:30:30.843Z,99513.00
2022-12-16T01:32:58.136Z,99518.00
2022-12-16T01:38:13.708Z,99517.00
2022-12-16T01:40:41.014Z,99515.00
2022-12-16T01:43:12.312Z,99510.00
2022-12-16T01:45:39.901Z,99505.00
2022-12-16T01:48:26.651Z,99507.00
2022-12-16T01:51:01.121Z,99497.00
2022-12-16T01:53:29.681Z,99488.00
2022-12-16T01:55:58.744Z,99476.00
2022-12-16T01:58:31.511Z,99467.00
2022-12-16T02:00:59.373Z,99468.00
2022-12-16T02:03:27.837Z,99461.00
2022-12-16T02:05:56.310Z,99467.00
2022-12-16T02:08:23.730Z,99468.00
2022-12-16T02:11:10.807Z,99465.00
2022-12-16T02:13:57.372Z,99462.00
2022-12-16T02:16:31.171Z,99460.00
2022-12-16T02:19:05.945Z,99454.00
2022-12-16T02:21:46.070Z,99464.00
2022-12-16T02:24:43.355Z,99461.00
2022-12-16T02:27:42.336Z,99456.00
2022-12-16T02:30:28.287Z,99465.00
2022-12-16T02:33:06.944Z,99467.00
2022-12-16T02:35:39.796Z,99457.00
2022-12-16T02:38:17.857Z,99461.00
2022-12-16T02:40:51.864Z,99454.00
2022-12-16T02:43:33.143Z,99452.00
2022-12-16T02:46:02.383Z,99461.00
2022-12-16T02:48:29.849Z,99460.00
2022-12-16T02:50:57.239Z,99460.00
2022-12-16T02:53:25.220Z,99463.00
2022-12-16T02:56:09.703Z,99454.00
2022-12-16T02:58:46.746Z,99448.00
2022-12-16T03:01:24.091Z,99451.00
2022-12-16T03:04:01.354Z,99447.00
2022-12-16T03:06:31.586Z,99449.00
2022-12-16T03:09:02.891Z,99441.00
2022-12-16T03:11:31.952Z,99444.00
2022-12-16T03:14:01.601Z,99450.00
2022-12-16T03:16:33.640Z,99465.00
2022-12-16T03:19:04.635Z,99449.00
2022-12-16T03:21:38.010Z,99448.00
2022-12-16T03:24:07.950Z,99455.00
2022-12-16T03:26:39.061Z,99455.00
2022-12-16T03:29:12.182Z,99448.00
2022-12-16T03:31:43.663Z,99452.00
2022-12-16T03:34:17.014Z,99452.00
2022-12-16T03:36:46.925Z,99441.00
2022-12-16T03:39:15.293Z,99442.00
2022-12-16T03:41:44.523Z,99434.00
2022-12-16T03:44:12.295Z,99439.00
2022-12-16T03:46:40.312Z,99446.00
2022-12-16T03:49:07.634Z,99442.00
2022-12-16T03:51:34.937Z,99454.00
2022-12-16T03:54:02.243Z,99458.00
2022-12-16T03:56:29.498Z,99458.00
2022-12-16T03:58:56.818Z,99454.00
2022-12-16T04:01:24.383Z,99445.00
2022-12-16T04:03:52.527Z,99450.00
2022-12-16T04:06:19.866Z,99459.00
2022-12-16T04:08:47.429Z,99446.00
2022-12-16T04:11:33.531Z,99442.00
2022-12-16T04:14:19.738Z,99453.00
2022-12-16T04:17:05.290Z,99446.00
2022-12-16T04:19:55.241Z,99454.00
2022-12-16T04:22:44.033Z,99460.00
2022-12-16T04:25:14.533Z,99460.00
2022-12-16T04:27:46.250Z,99451.00
2022-12-16T04:30:20.996Z,99463.00
2022-12-16T04:33:10.158Z,99468.00
2022-12-16T04:35:56.636Z,99469.00
2022-12-16T04:38:42.164Z,99473.00
2022-12-16T04:41:27.852Z,99479.00
2022-12-16T04:44:13.591Z,99484.00
2022-12-16T04:46:59.271Z,99489.00
2022-12-16T04:49:44.778Z,99489.00
2022-12-16T04:52:31.447Z,99483.00
2022-12-16T04:55:16.922Z,99489.00
2022-12-16T04:58:04.930Z,99495.00
2022-12-16T05:00:50.402Z,99505.00
2022-12-16T05:03:36.108Z,99508.00
2022-12-16T05:06:22.236Z,99507.00
2022-12-16T05:09:07.416Z,99506.00
2022-12-16T05:11:52.614Z,99516.00
2022-12-16T05:14:37.968Z,99515.00
2022-12-16T05:17:23.420Z,99520.00
2022-12-16T05:20:09.015Z,99526.00
2022-12-16T05:22:54.513Z,99523.00
2022-12-16T05:25:40.281Z,99526.00
2022-12-16T05:28:25.828Z,99531.00
2022-12-16T05:31:11.533Z,99530.00
2022-12-16T05:33:57.149Z,99522.00
2022-12-16T05:36:43.849Z,99517.00
2022-12-16T05:39:29.133Z,99516.00
2022-12-16T05:42:15.285Z,99515.00
2022-12-16T05:45:00.533Z,99512.00
2022-12-16T05:47:45.231Z,99501.00
2022-12-16T05:50:31.132Z,99512.00
2022-12-16T05:53:16.648Z,99512.00
2022-12-16T05:56:02.668Z,99515.00
2022-12-16T05:58:48.686Z,99522.00
2022-12-16T06:01:34.258Z,99528.00
2022-12-16T06:04:19.703Z,99529.00
2022-12-16T06:07:05.171Z,99536.00
2022-12-16T06:09:56.092Z,99540.00
2022-12-16T06:12:42.462Z,99543.00
2022-12-16T06:15:29.463Z,99550.00
2022-12-16T06:18:14.741Z,99552.00
2022-12-16T06:21:00.082Z,99548.00
2022-12-16T06:23:45.594Z,99545.00
2022-12-16T06:26:31.383Z,99555.00
2022-12-16T06:29:16.943Z,99551.00
2022-12-16T06:32:02.933Z,99553.00
2022-12-16T06:34:48.190Z,99569.00
2022-12-16T06:37:33.381Z,99575.00
2022-12-16T06:40:18.945Z,99573.00
2022-12-16T06:43:04.069Z,99577.00
2022-12-16T06:45:49.344Z,99585.00
2022-12-16T06:48:35.689Z,99589.00
2022-12-16T06:51:21.425Z,99589.00
2022-12-16T06:54:06.771Z,99588.00
2022-12-16T06:56:52.049Z,99595.00
2022-12-16T06:59:36.426Z,99608.00
2022-12-16T07:02:21.888Z,99608.00
2022-12-16T07:05:08.181Z,99621.00
2022-12-16T07:07:53.363Z,99607.00
2022-12-16T07:10:38.467Z,99623.00
2022-12-16T07:13:23.941Z,99623.00
2022-12-16T07:16:09.195Z,99617.00
2022-12-16T07:18:54.732Z,99631.00
2022-12-16T07:21:41.242Z,99634.00
2022-12-16T07:24:26.909Z,99642.00
2022-12-16T07:27:12.765Z,99639.00
2022-12-16T07:29:58.219Z,99648.00
2022-12-16T07:32:43.694Z,99651.00
2022-12-16T07:35:29.272Z,99651.00
2022-12-16T07:38:15.598Z,99658.00
2022-12-16T07:41:00.903Z,99666.00
2022-12-16T07:43:54.913Z,99679.00
2022-12-16T07:46:40.292Z,99675.00
2022-12-16T07:49:25.787Z,99680.00
2022-12-16T07:52:11.084Z,99682.00
2022-12-16T07:54:57.017Z,99677.00
2022-12-16T07:57:42.373Z,99690.00
2022-12-16T08:00:28.967Z,99684.00
2022-12-16T08:03:14.355Z,99679.00
2022-12-16T08:05:59.887Z,99686.00
2022-12-16T08:08:45.063Z,99689.00
2022-12-16T08:11:30.973Z,99691.00
2022-12-16T08:14:16.472Z,99694.00
2022-12-16T08:17:01.788Z,99698.00
2022-12-16T08:19:47.206Z,99703.00
2022-12-16T08:22:32.456Z,99712.00
2022-12-16T08:25:17.943Z,99717.00
2022-12-16T08:28:04.492Z,99726.00
2022-12-16T08:30:49.986Z,99739.00
2022-12-16T08:33:35.863Z,99732.00
2022-12-16T08:36:21.822Z,99735.00
2022-12-16T08:39:07.314Z,99739.00
2022-12-16T08:41:52.641Z,99738.00
2022-12-16T08:44:38.985Z,99746.00
2022-12-16T08:47:24.642Z,99740.00
2022-12-16T08:50:09.924Z,99742.00
2022-12-16T08:52:55.211Z,99750.00
2022-12-16T08:55:40.699Z,99752.00
2022-12-16T08:58:26.272Z,99758.00
2022-12-16T09:01:12.317Z,99759.00
2022-12-16T09:03:57.629Z,99751.00
2022-12-16T09:06:42.987Z,99755.00
2022-12-16T09:09:28.595Z,99762.00
2022-12-16T09:12:14.145Z,99761.00
2022-12-16T09:14:59.685Z,99774.00
2022-12-16T09:17:45.703Z,99768.00
2022-12-16T09:20:30.902Z,99770.00
2022-12-16T09:23:20.597Z,99777.00
2022-12-16T09:26:06.187Z,99776.00
2022-12-16T09:28:51.480Z,99776.00
2022-12-16T09:31:37.281Z,99772.00
2022-12-16T09:34:23.608Z,99788.00
2022-12-16T09:37:09.230Z,99785.00
2022-12-16T09:39:54.509Z,99785.00
2022-12-16T09:42:47.977Z,99782.00
2022-12-16T09:45:49.536Z,99781.00
2022-12-16T09:48:45.862Z,99788.00
2022-12-16T09:51:32.831Z,99786.00
2022-12-16T09:54:19.658Z,99801.00
2022-12-16T09:57:17.936Z,99799.00
2022-12-16T10:00:15.236Z,99807.00
2022-12-16T10:03:06.561Z,99808.00
2022-12-16T10:06:12.411Z,99812.00
2022-12-16T10:09:05.086Z,99813.00
2022-12-16T10:12:02.718Z,99812.00
2022-12-16T10:14:53.468Z,99822.00
2022-12-16T10:17:43.279Z,99826.00
2022-12-16T10:20:36.199Z,99829.00
2022-12-16T10:23:29.169Z,99829.00
2022-12-16T10:26:20.484Z,99825.00
2022-12-16T10:29:09.209Z,99825.00
2022-12-16T10:31:55.837Z,99826.00
2022-12-16T10:34:46.657Z,99824.00
2022-12-16T10:37:38.869Z,99831.00
2022-12-16T10:40:31.856Z,99826.00
2022-12-16T10:43:22.847Z,99832.00
2022-12-16T10:46:11.904Z,99840.00
2022-12-16T10:48:57.402Z,99836.00
2022-12-16T10:51:45.922Z,99829.00
2022-12-16T10:54:51.281Z,99830.00
2022-12-16T10:57:50.477Z,99840.00
2022-12-16T11:00:55.816Z,99834.00
2022-12-16T11:03:43.569Z,99839.00
2022-12-16T11:06:33.235Z,99831.00
2022-12-16T11:09:40.593Z,99833.00
2022-12-16T11:12:43.777Z,99842.00
2022-12-16T11:15:44.782Z,99843.00
2022-12-16T11:18:32.898Z,99850.00
2022-12-16T11:21:34.040Z,99853.00
2022-12-16T11:24:30.853Z,99849.00
2022-12-16T11:27:18.269Z,99845.00
2022-12-16T11:30:12.054Z,99850.00
2022-12-16T11:33:01.839Z,99865.00
2022-12-16T11:35:51.004Z,99861.00
2022-12-16T11:38:43.802Z,99866.00
2022-12-16T11:41:40.581Z,99865.00
2022-12-16T11:44:34.283Z,99875.00
2022-12-16T11:47:20.086Z,99871.00
2022-12-16T11:50:07.977Z,99878.00
2022-12-16T11:52:54.052Z,99869.00
2022-12-16T11:58:57.228Z,99887.00
2022-12-16T12:01:48.378Z,99885.00
2022-12-16T12:04:34.241Z,99883.00
2022-12-16T12:07:58.788Z,99889.00
2022-12-16T12:11:11.968Z,99905.00
2022-12-16T12:14:08.029Z,99896.00
2022-12-16T12:17:01.882Z,99907.00
2022-12-16T12:19:59.041Z,99899.00
2022-12-16T12:22:52.485Z,99908.00
2022-12-16T12:25:46.387Z,99917.00
2022-12-16T12:28:43.684Z,99919.00
2022-12-16T12:31:39.240Z,99919.00
2022-12-16T12:34:33.784Z,99923.00
2022-12-16T12:37:37.026Z,99925.00
2022-12-16T12:40:37.213Z,99920.00
2022-12-16T12:43:29.780Z,99919.00
2022-12-16T12:46:22.275Z,99918.00
2022-12-16T12:49:14.719Z,99920.00
2022-12-16T12:52:08.083Z,99932.00
2022-12-16T12:55:00.364Z,99921.00
2022-12-16T12:57:47.974Z,99927.00
2022-12-16T13:00:36.771Z,99933.00
2022-12-16T13:03:33.730Z,99934.00
2022-12-16T13:06:21.037Z,99926.00
2022-12-16T13:09:16.727Z,99943.00
2022-12-16T13:12:40.820Z,99939.00
2022-12-16T13:15:29.010Z,99940.00
2022-12-16T13:18:54.012Z,99941.00
2022-12-16T13:22:01.379Z,99951.00
2022-12-16T13:25:03.589Z,99957.00
2022-12-16T13:28:04.540Z,99969.00
2022-12-16T13:30:52.222Z,99965.00
2022-12-16T13:33:46.430Z,99974.00
2022-12-16T13:36:33.469Z,99976.00
2022-12-16T13:39:36.554Z,99981.00
2022-12-16T13:42:22.210Z,99992.00
2022-12-16T13:45:16.367Z,99981.00
2022-12-16T13:48:21.637Z,99986.00
2022-12-16T13:51:09.135Z,99996.00
2022-12-16T13:54:00.797Z,99998.00
2022-12-16T13:56:52.497Z,100003.00
2022-12-16T13:59:41.569Z,100017.00
2022-12-16T14:02:41.897Z,100014.00
2022-12-16T14:05:36.956Z,100012.00
2022-12-16T14:08:24.805Z,100028.00
2022-12-16T14:11:18.689Z,100033.00
2022-12-16T14:14:10.920Z,100039.00
2022-12-16T14:17:05.362Z,100040.00
2022-12-16T14:20:03.231Z,100045.00
2022-12-16T14:23:06.416Z,100048.00
2022-12-16T14:25:52.017Z,100058.00
2022-12-16T14:28:45.413Z,100060.00
2022-12-16T14:31:34.146Z,100060.00
2022-12-16T14:34:30.513Z,100069.00
2022-12-16T14:37:23.807Z,100068.00
2022-12-16T14:40:23.070Z,100070.00
2022-12-16T14:43:13.006Z,100070.00
2022-12-16T14:46:07.867Z,100086.00
2022-12-16T14:48:55.870Z,100093.00
2022-12-16T14:51:46.698Z,100081.00
2022-12-16T14:54:43.534Z,100090.00
2022-12-16T14:57:35.883Z,100091.00
2022-12-16T15:00:31.068Z,100095.00
2022-12-16T15:03:20.192Z,100095.00
2022-12-16T15:06:09.593Z,100105.00
2022-12-16T15:09:02.436Z,100105.00
2022-12-16T15:11:48.117Z,100104.00
2022-12-16T15:14:41.337Z,100121.00
2022-12-16T15:17:40.075Z,100127.00
2022-12-16T15:20:35.089Z,100122.00
2022-12-16T15:23:20.827Z,100124.00
2022-12-16T15:26:14.050Z,100137.00
2022-12-16T15:29:01.689Z,100139.00
2022-12-16T15:31:53.023Z,100137.00
2022-12-16T15:34:50.519Z,100134.00
2022-12-16T15:37:43.809Z,100140.00
2022-12-16T15:40:54.233Z,100145.00
2022-12-16T15:43:56.105Z,100154.00
2022-12-16T15:46:45.629Z,100159.00
2022-12-16T15:49:38.724Z,100157.00
2022-12-16T15:52:50.048Z,100156.00
2022-12-16T15:55:44.806Z,100160.00
2022-12-16T15:58:37.670Z,100172.00
2022-12-16T16:01:39.121Z,100179.00
2022-12-16T16:04:38.859Z,100184.00
2022-12-16T16:07:34.310Z,100198.00
2022-12-16T16:10:31.807Z,100196.00
2022-12-16T16:13:16.960Z,100187.00
2022-12-16T16:16:03.058Z,100191.00
2022-12-16T16:18:48.498Z,100196.00
2022-12-16T16:21:34.404Z,100200.00
2022-12-16T16:24:19.915Z,100210.00
2022-12-16T16:27:05.535Z,100203.00
2022-12-16T16:29:51.068Z,100191.00
2022-12-16T16:32:36.634Z,100188.00
2022-12-16T16:35:22.163Z,100190.00
2022-12-16T16:38:08.136Z,100198.00
2022-12-16T16:40:55.783Z,100201.00
2022-12-16T16:43:41.893Z,100203.00
2022-12-16T16:46:42.174Z,100215.00
2022-12-16T16:49:28.115Z,100215.00
2022-12-16T16:52:13.979Z,100224.00
2022-12-16T16:54:59.855Z,100212.00
2022-12-16T16:57:46.982Z,100220.00
2022-12-16T17:00:33.637Z,100232.00
2022-12-16T17:03:19.135Z,100228.00
2022-12-16T17:06:04.641Z,100234.00
2022-12-16T17:08:49.969Z,100234.00
2022-12-16T17:11:38.860Z,100239.00
2022-12-16T17:14:26.902Z,100243.00
2022-12-16T17:17:12.470Z,100240.00
2022-12-16T17:19:57.591Z,100237.00
2022-12-16T17:22:54.888Z,100238.00
2022-12-16T17:25:40.497Z,100236.00
2022-12-16T17:28:28.715Z,100253.00
2022-12-16T17:31:14.169Z,100248.00
2022-12-16T17:33:59.561Z,100246.00
2022-12-16T17:36:44.789Z,100257.00
2022-12-16T17:39:30.609Z,100261.00
2022-12-16T17:42:16.118Z,100263.00
2022-12-16T17:45:05.438Z,100266.00
2022-12-16T17:47:50.590Z,100270.00
2022-12-16T17:50:36.275Z,100279.00
2022-12-16T17:53:22.000Z,100286.00
2022-12-16T17:56:07.112Z,100291.00
2022-12-16T17:58:55.501Z,100295.00
2022-12-16T18:01:42.988Z,100301.00
2022-12-16T18:04:28.376Z,100300.00
2022-12-16T18:07:13.926Z,100308.00
2022-12-16T18:09:59.390Z,100306.00
2022-12-16T18:12:53.446Z,100311.00
2022-12-16T18:15:38.723Z,100301.00
2022-12-16T18:18:24.811Z,100316.00
2022-12-16T18:21:10.051Z,100319.00
2022-12-16T18:23:55.293Z,100311.00
2022-12-16T18:26:40.971Z,100318.00
2022-12-16T18:29:26.229Z,100322.00
2022-12-16T18:32:11.959Z,100323.00
2022-12-16T18:34:57.871Z,100320.00
2022-12-16T18:37:43.417Z,100318.00
2022-12-16T18:40:29.351Z,100323.00
2022-12-16T18:43:14.633Z,100319.00
2022-12-16T18:46:00.258Z,100333.00
2022-12-16T18:48:45.566Z,100326.00
2022-12-16T18:51:33.720Z,100334.00
2022-12-16T18:54:19.401Z,100337.00
2022-12-16T18:57:04.989Z,100332.00
2022-12-16T19:00:04.770Z,100330.00
2022-12-16T19:02:50.207Z,100323.00
2022-12-16T19:05:35.955Z,100330.00
2022-12-16T19:08:22.047Z,100332.00
2022-12-16T19:11:07.285Z,100335.00
2022-12-16T19:13:52.585Z,100340.00
2022-12-16T19:16:38.138Z,100348.00
2022-12-16T19:19:23.508Z,100345.00
2022-12-16T19:22:09.229Z,100352.00
2022-12-16T19:24:56.174Z,100353.00
2022-12-16T19:27:41.840Z,100357.00
2022-12-16T19:30:28.542Z,100365.00
2022-12-16T19:33:10.344Z,100363.00
2022-12-16T19:35:56.939Z,100366.00
2022-12-16T19:38:42.503Z,100372.00
2022-12-16T19:41:33.528Z,100365.00
2022-12-16T19:44:18.516Z,100366.00
2022-12-16T19:47:04.037Z,100370.00
2022-12-16T19:49:49.448Z,100370.00
2022-12-16T19:52:35.013Z,100382.00
2022-12-16T19:55:20.621Z,100395.00
2022-12-16T19:58:06.638Z,100392.00
2022-12-16T20:00:51.915Z,100397.00
2022-12-16T20:03:37.519Z,100404.00
2022-12-16T20:06:25.145Z,100402.00
2022-12-16T20:09:11.330Z,100405.00
2022-12-16T20:11:57.608Z,100423.00
2022-12-16T20:14:44.692Z,100423.00
2022-12-16T20:17:32.404Z,100434.00
2022-12-16T20:20:17.905Z,100430.00
2022-12-16T20:23:03.196Z,100431.00
2022-12-16T20:25:48.805Z,100431.00
2022-12-16T20:28:34.212Z,100438.00
2022-12-16T20:31:21.444Z,100438.00
2022-12-16T20:34:16.899Z,100438.00
2022-12-16T20:37:02.146Z,100447.00
2022-12-16T20:39:56.510Z,100442.00
2022-12-16T20:42:47.606Z,100454.00
2022-12-16T20:45:48.665Z,100448.00
2022-12-16T20:48:46.705Z,100458.00
2022-12-16T20:51:32.260Z,100460.00
2022-12-16T20:54:23.136Z,100454.00
2022-12-16T20:57:12.512Z,100453.00
2022-12-16T20:59:58.595Z,100442.00
2022-12-16T21:02:55.930Z,100447.00
2022-12-16T21:05:42.384Z,100464.00
2022-12-16T21:08:28.076Z,100454.00
2022-12-16T21:11:20.584Z,100476.00
2022-12-16T21:14:05.679Z,100469.00
2022-12-16T21:16:50.889Z,100472.00
2022-12-16T21:19:37.247Z,100485.00
2022-12-16T21:22:23.183Z,100487.00
2022-12-16T21:25:08.567Z,100484.00
2022-12-16T21:27:53.716Z,100496.00
2022-12-16T21:30:40.692Z,100489.00
2022-12-16T21:33:34.477Z,100492.00
2022-12-16T21:36:20.016Z,100504.00
2022-12-16T21:39:06.226Z,100507.00
2022-12-16T21:41:51.443Z,100506.00
2022-12-16T21:44:37.186Z,100514.00
2022-12-16T21:47:24.859Z,100514.00
2022-12-16T21:50:10.226Z,100516.00
2022-12-16T21:52:56.357Z,100522.00
2022-12-16T21:55:42.633Z,100525.00
2022-12-16T22:01:57.001Z,100525.00
2022-12-16T22:04:49.661Z,100526.00
2022-12-16T22:07:56.097Z,100545.00
2022-12-16T22:14:47.511Z,100550.00
2022-12-16T22:17:37.048Z,100544.00
2022-12-16T22:21:07.537Z,100549.00
2022-12-16T22:24:03.189Z,100548.00
2022-12-16T22:26:51.753Z,100554.00
2022-12-16T22:29:58.904Z,100548.00
2022-12-16T22:40:42.330Z,100562.00
2022-12-16T22:44:10.276Z,100564.00
2022-12-16T22:47:05.161Z,100573.00
2022-12-16T22:50:09.957Z,100576.00
2022-12-16T22:53:18.610Z,100578.00
2022-12-16T22:59:17.192Z,100579.00
2022-12-16T23:02:12.763Z,100592.00
2022-12-16T23:09:00.368Z,100579.00
2022-12-16T23:12:04.689Z,100587.00
2022-12-16T23:24:20.487Z,100577.00
2022-12-16T23:27:28.733Z,100587.00
2022-12-16T23:30:14.741Z,100607.00
2022-12-16T23:36:35.354Z,100596.00
2022-12-16T23:36:44.254Z,100602.00
2022-12-16T23:39:38.987Z,100594.00
2022-12-16T23:42:24.740Z,100604.00
2022-12-16T23:45:10.537Z,100605.00
2022-12-16T23:47:56.431Z,100610.00
2022-12-16T23:50:42.294Z,100611.00
2022-12-16T23:53:25.567Z,100618.00
2022-12-16T23:56:15.502Z,100613.00
2022-12-16T23:59:00.979Z,100618.00
